RJOB Airport Information

Runway Information
Runway 07 Length 9843 ft width 150 ft Elevation 806 ft Threshold N/A Heading 59
Runway 25 Length 9843 ft Width 150 ft Elevation 804 ft Threshold N/A Heading 239
Airport Frequencies
Type APP Name TAKAMATSU Frequency 120.4 MHZ
Type TWR Name TWR Frequency 124.3 MHZ
Airport Navaids
Type VORTAC Name Okayama Frequency 115900 KHZ
Type VOR-DME Name Kibi Frequency 111000 KHZ
Airport Weather Information & NOTAM
ADDS - METARS form results

(1742 UTC 27 November 2022)
Data provider http://aviationweather.gov/metar/data/
 
Forecast for: RJOB (OKAYAMA AIRPORT , JP)
Text: TAF RJOB 271705Z 2718/2900 04005KT 9999 FEW020
Forecast period: 1800 UTC 27 November 2022 to 0000 UTC 29 November 2022
Forecast type: FROM: standard forecast or significant change
Winds: from the NE (40 degrees) at 6 MPH (5 knots; 2.6 m/s)
Visibility: 6 or more miles (10+ km)
Ceiling: at least 12,000 feet AGL
Clouds: few clouds at 2000 feet AGL
Weather: no significant weather forecast for this period
Text: TEMPO 2821/2900 4000 SHRA BR
Forecast period: 2100 UTC 28 November 2022 to 0000 UTC 29 November 2022
Forecast type: TEMPORARY: The following changes expected for less than half the time period
Visibility: 2.49 miles (4.01 km)
Ceiling: unknown
Clouds: missing
Weather: SHRA BR  (rain showers, mist)